TimePDT,TemperatureF,Dew PointF,Humidity,Sea Level PressureIn,VisibilityMPH,Wind Direction,Wind SpeedMPH,Gust SpeedMPH,PrecipitationIn,Events,Conditions,WindDirDegrees,DateUTC
12:53 AM,41.0,35.1,79,29.96,10.0,South,4.6,-,N/A,,Overcast,170,2013-03-17 07:53:00
1:53 AM,41.0,33.1,73,29.99,10.0,Calm,Calm,-,N/A,,Mostly Cloudy,0,2013-03-17 08:53:00
2:53 AM,41.0,33.1,73,30.01,10.0,Variable,6.9,-,N/A,,Overcast,0,2013-03-17 09:53:00
3:53 AM,41.0,32.0,70,30.02,10.0,South,5.8,-,N/A,,Mostly Cloudy,180,2013-03-17 10:53:00
4:53 AM,41.0,32.0,70,30.04,10.0,South,4.6,-,N/A,,Overcast,180,2013-03-17 11:53:00
5:53 AM,41.0,32.0,70,30.06,10.0,South,6.9,-,N/A,,Overcast,170,2013-03-17 12:53:00
6:53 AM,41.0,32.0,70,30.08,10.0,SSE,4.6,-,N/A,,Overcast,160,2013-03-17 13:53:00
7:53 AM,41.0,32.0,70,30.10,10.0,SSW,5.8,-,N/A,,Overcast,210,2013-03-17 14:53:00
8:53 AM,41.0,33.1,73,30.14,10.0,South,3.5,-,N/A,,Overcast,180,2013-03-17 15:53:00
9:53 AM,42.1,32.0,67,30.15,10.0,Variable,4.6,-,N/A,,Scattered Clouds,0,2013-03-17 16:53:00
10:53 AM,45.0,30.9,58,30.16,10.0,WNW,5.8,-,N/A,,Mostly Cloudy,290,2013-03-17 17:53:00
11:53 AM,46.0,30.9,56,30.16,10.0,SSW,6.9,-,N/A,,Scattered Clouds,210,2013-03-17 18:53:00
12:53 PM,45.0,30.0,56,30.16,10.0,Variable,5.8,-,N/A,,Clear,0,2013-03-17 19:53:00
1:53 PM,46.0,30.9,56,30.16,10.0,SSE,9.2,-,N/A,,Scattered Clouds,160,2013-03-17 20:53:00
2:53 PM,46.9,30.9,54,30.15,10.0,South,8.1,-,N/A,,Scattered Clouds,170,2013-03-17 21:53:00
3:53 PM,48.0,33.1,56,30.15,10.0,South,10.4,16.1,N/A,,Clear,170,2013-03-17 22:53:00
4:53 PM,46.0,32.0,58,30.16,10.0,West,8.1,-,0.00,Rain,Light Rain,280,2013-03-17 23:53:00
5:53 PM,46.0,33.1,61,30.15,10.0,South,8.1,-,0.00,,Mostly Cloudy,190,2013-03-18 00:53:00
6:53 PM,44.1,33.1,65,30.14,10.0,South,9.2,-,0.00,,Partly Cloudy,190,2013-03-18 01:53:00
7:53 PM,43.0,33.1,68,30.14,10.0,South,5.8,-,N/A,,Mostly Cloudy,190,2013-03-18 02:53:00
8:53 PM,42.1,33.1,70,30.14,10.0,SSW,5.8,-,N/A,,Mostly Cloudy,200,2013-03-18 03:53:00
9:53 PM,42.1,33.1,70,30.15,10.0,Variable,6.9,-,N/A,,Clear,0,2013-03-18 04:53:00
10:53 PM,41.0,33.1,73,30.15,10.0,South,4.6,-,N/A,,Mostly Cloudy,170,2013-03-18 05:53:00
11:53 PM,41.0,34.0,76,30.14,10.0,South,6.9,-,N/A,,Mostly Cloudy,180,2013-03-18 06:53:00